sensor_id;sensor_type;location;lat;lon;timestamp;P1;durP1;ratioP1;P2;durP2;ratioP2
68076;SDS011;54866;53.458;14.540;2022-08-21T00:02:22;6.60;;;3.20;;
68076;SDS011;54866;53.458;14.540;2022-08-21T00:04:54;3.60;;;2.50;;
68076;SDS011;54866;53.458;14.540;2022-08-21T00:07:25;3.90;;;2.10;;
68076;SDS011;54866;53.458;14.540;2022-08-21T00:09:55;4.00;;;2.60;;
68076;SDS011;54866;53.458;14.540;2022-08-21T00:12:26;5.60;;;3.00;;
68076;SDS011;54866;53.458;14.540;2022-08-21T00:14:57;4.20;;;2.70;;
68076;SDS011;54866;53.458;14.540;2022-08-21T00:17:28;6.50;;;2.70;;
68076;SDS011;54866;53.458;14.540;2022-08-21T00:19:58;5.20;;;2.90;;
68076;SDS011;54866;53.458;14.540;2022-08-21T00:22:28;6.40;;;2.60;;
68076;SDS011;54866;53.458;14.540;2022-08-21T00:24:59;5.40;;;2.50;;
68076;SDS011;54866;53.458;14.540;2022-08-21T00:27:29;6.60;;;2.80;;
68076;SDS011;54866;53.458;14.540;2022-08-21T00:29:59;4.30;;;2.80;;
68076;SDS011;54866;53.458;14.540;2022-08-21T00:32:31;3.70;;;2.10;;
68076;SDS011;54866;53.458;14.540;2022-08-21T00:35:02;6.80;;;3.00;;
68076;SDS011;54866;53.458;14.540;2022-08-21T00:37:35;4.20;;;2.50;;
68076;SDS011;54866;53.458;14.540;2022-08-21T00:40:07;5.70;;;3.10;;
68076;SDS011;54866;53.458;14.540;2022-08-21T00:42:40;6.50;;;2.80;;
68076;SDS011;54866;53.458;14.540;2022-08-21T00:45:11;3.50;;;2.50;;
68076;SDS011;54866;53.458;14.540;2022-08-21T00:47:42;6.20;;;2.90;;
68076;SDS011;54866;53.458;14.540;2022-08-21T00:50:12;4.60;;;2.60;;
68076;SDS011;54866;53.458;14.540;2022-08-21T00:52:43;3.80;;;2.90;;
68076;SDS011;54866;53.458;14.540;2022-08-21T00:55:14;4.80;;;2.70;;
68076;SDS011;54866;53.458;14.540;2022-08-21T00:57:45;5.60;;;2.50;;
68076;SDS011;54866;53.458;14.540;2022-08-21T01:00:21;3.70;;;2.40;;
68076;SDS011;54866;53.458;14.540;2022-08-21T01:02:54;4.20;;;2.80;;
68076;SDS011;54866;53.458;14.540;2022-08-21T01:05:25;7.40;;;3.00;;
68076;SDS011;54866;53.458;14.540;2022-08-21T01:07:55;5.00;;;2.70;;
68076;SDS011;54866;53.458;14.540;2022-08-21T01:10:26;6.00;;;2.60;;
68076;SDS011;54866;53.458;14.540;2022-08-21T01:12:57;3.80;;;2.40;;
68076;SDS011;54866;53.458;14.540;2022-08-21T01:15:29;5.70;;;2.90;;
68076;SDS011;54866;53.458;14.540;2022-08-21T01:18:02;4.50;;;2.60;;
68076;SDS011;54866;53.458;14.540;2022-08-21T01:20:34;4.70;;;2.40;;
68076;SDS011;54866;53.458;14.540;2022-08-21T01:23:05;5.30;;;2.50;;
68076;SDS011;54866;53.458;14.540;2022-08-21T01:25:35;4.80;;;3.00;;
68076;SDS011;54866;53.458;14.540;2022-08-21T01:28:06;5.30;;;2.50;;
68076;SDS011;54866;53.458;14.540;2022-08-21T01:30:41;4.30;;;2.20;;
68076;SDS011;54866;53.458;14.540;2022-08-21T01:33:12;6.70;;;3.00;;
68076;SDS011;54866;53.458;14.540;2022-08-21T01:35:43;7.40;;;2.70;;
68076;SDS011;54866;53.458;14.540;2022-08-21T01:38:14;8.40;;;3.30;;
68076;SDS011;54866;53.458;14.540;2022-08-21T01:40:44;5.00;;;2.50;;
68076;SDS011;54866;53.458;14.540;2022-08-21T01:43:15;6.40;;;3.00;;
68076;SDS011;54866;53.458;14.540;2022-08-21T01:45:45;6.20;;;2.40;;
68076;SDS011;54866;53.458;14.540;2022-08-21T01:48:16;4.90;;;2.40;;
68076;SDS011;54866;53.458;14.540;2022-08-21T01:50:46;4.60;;;3.10;;
68076;SDS011;54866;53.458;14.540;2022-08-21T01:53:16;6.00;;;2.90;;
68076;SDS011;54866;53.458;14.540;2022-08-21T01:55:46;5.60;;;2.60;;
68076;SDS011;54866;53.458;14.540;2022-08-21T01:58:16;4.40;;;2.90;;
68076;SDS011;54866;53.458;14.540;2022-08-21T02:00:47;8.70;;;3.00;;
68076;SDS011;54866;53.458;14.540;2022-08-21T02:03:18;4.80;;;2.60;;
68076;SDS011;54866;53.458;14.540;2022-08-21T02:05:49;6.80;;;2.90;;
68076;SDS011;54866;53.458;14.540;2022-08-21T02:08:19;5.30;;;2.70;;
68076;SDS011;54866;53.458;14.540;2022-08-21T02:10:50;5.30;;;3.00;;
68076;SDS011;54866;53.458;14.540;2022-08-21T02:13:20;6.30;;;2.80;;
68076;SDS011;54866;53.458;14.540;2022-08-21T02:15:51;5.30;;;2.50;;
68076;SDS011;54866;53.458;14.540;2022-08-21T02:18:21;7.10;;;3.20;;
68076;SDS011;54866;53.458;14.540;2022-08-21T02:20:52;3.50;;;2.60;;
68076;SDS011;54866;53.458;14.540;2022-08-21T02:23:22;5.80;;;2.80;;
68076;SDS011;54866;53.458;14.540;2022-08-21T02:25:53;6.80;;;2.90;;
68076;SDS011;54866;53.458;14.540;2022-08-21T02:28:24;7.50;;;2.70;;
68076;SDS011;54866;53.458;14.540;2022-08-21T02:30:56;5.40;;;3.00;;
68076;SDS011;54866;53.458;14.540;2022-08-21T02:33:26;5.50;;;2.90;;
68076;SDS011;54866;53.458;14.540;2022-08-21T02:35:57;5.20;;;2.40;;
68076;SDS011;54866;53.458;14.540;2022-08-21T02:38:28;6.80;;;2.70;;
68076;SDS011;54866;53.458;14.540;2022-08-21T02:41:01;3.00;;;2.30;;
68076;SDS011;54866;53.458;14.540;2022-08-21T02:43:32;4.30;;;2.50;;
68076;SDS011;54866;53.458;14.540;2022-08-21T02:46:02;3.70;;;2.70;;
68076;SDS011;54866;53.458;14.540;2022-08-21T02:48:34;5.20;;;2.50;;
68076;SDS011;54866;53.458;14.540;2022-08-21T02:51:05;4.60;;;2.60;;
68076;SDS011;54866;53.458;14.540;2022-08-21T02:53:37;4.10;;;2.90;;
68076;SDS011;54866;53.458;14.540;2022-08-21T02:56:10;4.80;;;2.40;;
68076;SDS011;54866;53.458;14.540;2022-08-21T02:58:43;5.20;;;2.60;;
68076;SDS011;54866;53.458;14.540;2022-08-21T03:01:16;5.90;;;3.00;;
68076;SDS011;54866;53.458;14.540;2022-08-21T03:03:47;6.70;;;2.90;;
68076;SDS011;54866;53.458;14.540;2022-08-21T03:06:18;6.30;;;2.90;;
68076;SDS011;54866;53.458;14.540;2022-08-21T03:08:51;4.30;;;2.80;;
68076;SDS011;54866;53.458;14.540;2022-08-21T03:11:21;4.80;;;2.90;;
68076;SDS011;54866;53.458;14.540;2022-08-21T03:13:53;5.50;;;2.70;;
68076;SDS011;54866;53.458;14.540;2022-08-21T03:16:23;6.50;;;2.60;;
68076;SDS011;54866;53.458;14.540;2022-08-21T03:18:53;4.80;;;2.70;;
68076;SDS011;54866;53.458;14.540;2022-08-21T03:21:24;4.20;;;2.20;;
68076;SDS011;54866;53.458;14.540;2022-08-21T03:23:55;4.10;;;2.10;;
68076;SDS011;54866;53.458;14.540;2022-08-21T03:26:25;4.40;;;2.40;;
68076;SDS011;54866;53.458;14.540;2022-08-21T03:28:56;4.70;;;2.60;;
68076;SDS011;54866;53.458;14.540;2022-08-21T03:31:26;5.60;;;2.50;;
68076;SDS011;54866;53.458;14.540;2022-08-21T03:33:58;4.50;;;2.90;;
68076;SDS011;54866;53.458;14.540;2022-08-21T03:36:28;6.40;;;2.80;;
68076;SDS011;54866;53.458;14.540;2022-08-21T03:38:58;5.50;;;3.20;;
68076;SDS011;54866;53.458;14.540;2022-08-21T03:41:28;5.00;;;3.10;;
68076;SDS011;54866;53.458;14.540;2022-08-21T03:43:59;7.10;;;2.90;;
68076;SDS011;54866;53.458;14.540;2022-08-21T03:46:29;6.90;;;3.00;;
68076;SDS011;54866;53.458;14.540;2022-08-21T03:49:00;5.90;;;2.50;;
68076;SDS011;54866;53.458;14.540;2022-08-21T03:51:31;5.90;;;2.90;;
68076;SDS011;54866;53.458;14.540;2022-08-21T03:54:02;4.90;;;3.20;;
68076;SDS011;54866;53.458;14.540;2022-08-21T03:56:33;5.10;;;2.80;;
68076;SDS011;54866;53.458;14.540;2022-08-21T03:59:03;5.10;;;3.00;;
68076;SDS011;54866;53.458;14.540;2022-08-21T04:01:34;5.10;;;2.90;;
68076;SDS011;54866;53.458;14.540;2022-08-21T04:04:04;5.10;;;2.70;;
68076;SDS011;54866;53.458;14.540;2022-08-21T04:06:34;6.50;;;3.10;;
68076;SDS011;54866;53.458;14.540;2022-08-21T04:09:04;6.90;;;2.50;;
68076;SDS011;54866;53.458;14.540;2022-08-21T04:11:34;5.70;;;3.10;;
68076;SDS011;54866;53.458;14.540;2022-08-21T04:14:05;5.80;;;3.00;;
68076;SDS011;54866;53.458;14.540;2022-08-21T04:16:36;7.20;;;3.30;;
68076;SDS011;54866;53.458;14.540;2022-08-21T04:19:06;5.40;;;2.90;;
68076;SDS011;54866;53.458;14.540;2022-08-21T04:21:37;4.00;;;3.30;;
68076;SDS011;54866;53.458;14.540;2022-08-21T04:24:08;4.00;;;2.70;;
68076;SDS011;54866;53.458;14.540;2022-08-21T04:26:38;5.90;;;2.80;;
68076;SDS011;54866;53.458;14.540;2022-08-21T04:29:09;7.60;;;3.10;;
68076;SDS011;54866;53.458;14.540;2022-08-21T04:31:39;5.60;;;3.20;;
68076;SDS011;54866;53.458;14.540;2022-08-21T04:34:10;5.80;;;2.50;;
68076;SDS011;54866;53.458;14.540;2022-08-21T04:36:41;5.60;;;2.60;;
68076;SDS011;54866;53.458;14.540;2022-08-21T04:39:11;4.00;;;2.60;;
68076;SDS011;54866;53.458;14.540;2022-08-21T04:41:41;4.90;;;2.60;;
68076;SDS011;54866;53.458;14.540;2022-08-21T04:44:12;4.60;;;3.00;;
68076;SDS011;54866;53.458;14.540;2022-08-21T04:46:44;6.50;;;2.80;;
68076;SDS011;54866;53.458;14.540;2022-08-21T04:49:14;5.70;;;2.90;;
68076;SDS011;54866;53.458;14.540;2022-08-21T04:51:45;5.70;;;3.30;;
68076;SDS011;54866;53.458;14.540;2022-08-21T04:54:17;7.40;;;3.50;;
68076;SDS011;54866;53.458;14.540;2022-08-21T04:56:51;5.60;;;2.80;;
68076;SDS011;54866;53.458;14.540;2022-08-21T04:59:24;4.40;;;2.70;;
68076;SDS011;54866;53.458;14.540;2022-08-21T05:02:00;5.50;;;3.10;;
68076;SDS011;54866;53.458;14.540;2022-08-21T05:04:31;7.20;;;3.50;;
68076;SDS011;54866;53.458;14.540;2022-08-21T05:07:06;5.20;;;3.00;;
68076;SDS011;54866;53.458;14.540;2022-08-21T05:09:40;4.40;;;2.60;;
68076;SDS011;54866;53.458;14.540;2022-08-21T05:12:11;5.40;;;2.80;;
68076;SDS011;54866;53.458;14.540;2022-08-21T05:14:42;6.80;;;3.60;;
68076;SDS011;54866;53.458;14.540;2022-08-21T05:17:14;6.90;;;2.80;;
68076;SDS011;54866;53.458;14.540;2022-08-21T05:19:44;8.20;;;3.90;;
68076;SDS011;54866;53.458;14.540;2022-08-21T05:22:20;6.70;;;3.30;;
68076;SDS011;54866;53.458;14.540;2022-08-21T05:24:51;7.60;;;3.40;;
68076;SDS011;54866;53.458;14.540;2022-08-21T05:27:21;4.70;;;2.70;;
68076;SDS011;54866;53.458;14.540;2022-08-21T05:29:52;3.60;;;2.50;;
68076;SDS011;54866;53.458;14.540;2022-08-21T05:32:23;5.10;;;2.70;;
68076;SDS011;54866;53.458;14.540;2022-08-21T05:34:54;4.20;;;2.40;;
68076;SDS011;54866;53.458;14.540;2022-08-21T05:37:24;6.80;;;3.00;;
68076;SDS011;54866;53.458;14.540;2022-08-21T05:39:55;5.60;;;3.00;;
68076;SDS011;54866;53.458;14.540;2022-08-21T05:42:25;5.60;;;3.00;;
68076;SDS011;54866;53.458;14.540;2022-08-21T05:44:55;4.20;;;3.00;;
68076;SDS011;54866;53.458;14.540;2022-08-21T05:47:25;5.70;;;2.80;;
68076;SDS011;54866;53.458;14.540;2022-08-21T05:49:55;6.40;;;3.20;;
68076;SDS011;54866;53.458;14.540;2022-08-21T05:52:26;4.90;;;2.60;;
68076;SDS011;54866;53.458;14.540;2022-08-21T05:54:56;4.10;;;2.90;;
68076;SDS011;54866;53.458;14.540;2022-08-21T05:57:26;5.80;;;3.10;;
68076;SDS011;54866;53.458;14.540;2022-08-21T05:59:56;5.60;;;2.90;;
68076;SDS011;54866;53.458;14.540;2022-08-21T06:02:27;5.40;;;3.20;;
68076;SDS011;54866;53.458;14.540;2022-08-21T06:04:57;6.90;;;3.90;;
68076;SDS011;54866;53.458;14.540;2022-08-21T06:07:28;8.10;;;3.30;;
68076;SDS011;54866;53.458;14.540;2022-08-21T06:09:59;4.50;;;3.10;;
68076;SDS011;54866;53.458;14.540;2022-08-21T06:12:29;4.10;;;3.00;;
68076;SDS011;54866;53.458;14.540;2022-08-21T06:15:00;6.20;;;2.90;;
68076;SDS011;54866;53.458;14.540;2022-08-21T06:17:31;6.10;;;2.70;;
68076;SDS011;54866;53.458;14.540;2022-08-21T06:20:01;5.90;;;2.70;;
68076;SDS011;54866;53.458;14.540;2022-08-21T06:22:33;5.00;;;2.90;;
68076;SDS011;54866;53.458;14.540;2022-08-21T06:25:04;6.10;;;2.70;;
68076;SDS011;54866;53.458;14.540;2022-08-21T06:27:37;5.00;;;2.90;;
68076;SDS011;54866;53.458;14.540;2022-08-21T06:30:08;6.60;;;3.10;;
68076;SDS011;54866;53.458;14.540;2022-08-21T06:32:39;5.00;;;3.10;;
68076;SDS011;54866;53.458;14.540;2022-08-21T06:35:10;6.50;;;2.50;;
68076;SDS011;54866;53.458;14.540;2022-08-21T06:37:40;5.90;;;3.00;;
68076;SDS011;54866;53.458;14.540;2022-08-21T06:40:11;6.30;;;2.80;;
68076;SDS011;54866;53.458;14.540;2022-08-21T06:42:41;4.00;;;2.80;;
68076;SDS011;54866;53.458;14.540;2022-08-21T06:45:12;4.60;;;2.90;;
68076;SDS011;54866;53.458;14.540;2022-08-21T06:47:42;6.20;;;2.60;;
68076;SDS011;54866;53.458;14.540;2022-08-21T06:50:12;4.80;;;3.00;;
68076;SDS011;54866;53.458;14.540;2022-08-21T06:52:43;4.70;;;2.40;;
68076;SDS011;54866;53.458;14.540;2022-08-21T06:55:13;4.40;;;2.70;;
68076;SDS011;54866;53.458;14.540;2022-08-21T06:57:44;4.50;;;2.50;;
68076;SDS011;54866;53.458;14.540;2022-08-21T07:00:15;4.60;;;2.20;;
68076;SDS011;54866;53.458;14.540;2022-08-21T07:02:45;4.30;;;2.50;;
68076;SDS011;54866;53.458;14.540;2022-08-21T07:05:15;5.80;;;2.90;;
68076;SDS011;54866;53.458;14.540;2022-08-21T07:07:46;4.30;;;2.70;;
68076;SDS011;54866;53.458;14.540;2022-08-21T07:10:17;5.60;;;2.60;;
68076;SDS011;54866;53.458;14.540;2022-08-21T07:12:48;3.90;;;2.50;;
68076;SDS011;54866;53.458;14.540;2022-08-21T07:15:19;4.90;;;2.40;;
68076;SDS011;54866;53.458;14.540;2022-08-21T07:17:50;4.50;;;2.70;;
68076;SDS011;54866;53.458;14.540;2022-08-21T07:20:20;6.80;;;2.90;;
68076;SDS011;54866;53.458;14.540;2022-08-21T07:22:51;4.80;;;2.50;;
68076;SDS011;54866;53.458;14.540;2022-08-21T07:25:22;3.60;;;2.30;;
68076;SDS011;54866;53.458;14.540;2022-08-21T07:27:52;6.70;;;2.80;;
68076;SDS011;54866;53.458;14.540;2022-08-21T07:30:23;3.80;;;2.60;;
68076;SDS011;54866;53.458;14.540;2022-08-21T07:32:54;4.30;;;2.60;;
68076;SDS011;54866;53.458;14.540;2022-08-21T07:35:25;6.60;;;2.60;;
68076;SDS011;54866;53.458;14.540;2022-08-21T07:37:57;4.50;;;2.40;;
68076;SDS011;54866;53.458;14.540;2022-08-21T07:40:28;4.10;;;2.10;;
68076;SDS011;54866;53.458;14.540;2022-08-21T07:42:58;3.90;;;2.30;;
68076;SDS011;54866;53.458;14.540;2022-08-21T07:45:29;5.30;;;2.40;;
68076;SDS011;54866;53.458;14.540;2022-08-21T07:47:59;3.60;;;2.80;;
68076;SDS011;54866;53.458;14.540;2022-08-21T07:50:30;5.90;;;2.30;;
68076;SDS011;54866;53.458;14.540;2022-08-21T07:53:00;4.10;;;2.20;;
68076;SDS011;54866;53.458;14.540;2022-08-21T07:55:31;5.10;;;2.50;;
68076;SDS011;54866;53.458;14.540;2022-08-21T07:58:02;3.60;;;2.20;;
68076;SDS011;54866;53.458;14.540;2022-08-21T08:00:33;3.80;;;2.30;;
68076;SDS011;54866;53.458;14.540;2022-08-21T08:03:03;5.80;;;2.60;;
68076;SDS011;54866;53.458;14.540;2022-08-21T08:05:33;4.80;;;2.10;;
68076;SDS011;54866;53.458;14.540;2022-08-21T08:08:05;4.20;;;2.80;;
68076;SDS011;54866;53.458;14.540;2022-08-21T08:10:37;5.80;;;1.90;;
68076;SDS011;54866;53.458;14.540;2022-08-21T08:15:38;3.10;;;2.50;;
68076;SDS011;54866;53.458;14.540;2022-08-21T08:18:08;5.00;;;2.30;;
68076;SDS011;54866;53.458;14.540;2022-08-21T08:20:38;4.10;;;2.20;;
68076;SDS011;54866;53.458;14.540;2022-08-21T08:23:11;4.10;;;2.50;;
68076;SDS011;54866;53.458;14.540;2022-08-21T08:25:42;3.50;;;2.70;;
68076;SDS011;54866;53.458;14.540;2022-08-21T08:28:13;4.80;;;2.50;;
68076;SDS011;54866;53.458;14.540;2022-08-21T08:30:44;4.00;;;2.30;;
68076;SDS011;54866;53.458;14.540;2022-08-21T08:33:16;4.30;;;2.30;;
68076;SDS011;54866;53.458;14.540;2022-08-21T08:35:47;4.90;;;1.90;;
68076;SDS011;54866;53.458;14.540;2022-08-21T08:38:19;4.50;;;2.20;;
68076;SDS011;54866;53.458;14.540;2022-08-21T08:40:52;4.10;;;2.30;;
68076;SDS011;54866;53.458;14.540;2022-08-21T08:43:29;5.30;;;2.10;;
68076;SDS011;54866;53.458;14.540;2022-08-21T08:46:01;4.10;;;2.10;;
68076;SDS011;54866;53.458;14.540;2022-08-21T08:48:39;3.80;;;2.30;;
68076;SDS011;54866;53.458;14.540;2022-08-21T08:51:16;4.20;;;2.10;;
68076;SDS011;54866;53.458;14.540;2022-08-21T08:53:51;5.20;;;2.00;;
68076;SDS011;54866;53.458;14.540;2022-08-21T08:56:28;5.80;;;2.00;;
68076;SDS011;54866;53.458;14.540;2022-08-21T08:59:02;4.60;;;1.70;;
68076;SDS011;54866;53.458;14.540;2022-08-21T09:01:41;3.90;;;1.70;;
68076;SDS011;54866;53.458;14.540;2022-08-21T09:04:12;5.40;;;1.90;;
68076;SDS011;54866;53.458;14.540;2022-08-21T09:06:53;7.30;;;2.00;;
68076;SDS011;54866;53.458;14.540;2022-08-21T09:09:34;5.00;;;1.80;;
68076;SDS011;54866;53.458;14.540;2022-08-21T09:12:17;3.80;;;1.90;;
68076;SDS011;54866;53.458;14.540;2022-08-21T09:14:58;7.50;;;2.10;;
68076;SDS011;54866;53.458;14.540;2022-08-21T09:17:45;4.30;;;1.60;;
68076;SDS011;54866;53.458;14.540;2022-08-21T09:20:37;5.00;;;1.80;;
68076;SDS011;54866;53.458;14.540;2022-08-21T09:23:22;3.80;;;1.40;;
68076;SDS011;54866;53.458;14.540;2022-08-21T09:26:02;3.20;;;1.70;;
68076;SDS011;54866;53.458;14.540;2022-08-21T09:28:36;3.50;;;1.40;;
68076;SDS011;54866;53.458;14.540;2022-08-21T09:31:08;2.90;;;1.40;;
68076;SDS011;54866;53.458;14.540;2022-08-21T09:33:43;4.20;;;1.30;;
68076;SDS011;54866;53.458;14.540;2022-08-21T09:36:14;3.50;;;1.60;;
68076;SDS011;54866;53.458;14.540;2022-08-21T09:38:53;4.30;;;1.60;;
68076;SDS011;54866;53.458;14.540;2022-08-21T09:41:28;2.90;;;1.60;;
68076;SDS011;54866;53.458;14.540;2022-08-21T09:44:01;3.90;;;2.00;;
68076;SDS011;54866;53.458;14.540;2022-08-21T09:46:33;5.70;;;2.10;;
68076;SDS011;54866;53.458;14.540;2022-08-21T09:49:04;5.10;;;1.60;;
68076;SDS011;54866;53.458;14.540;2022-08-21T09:51:35;5.50;;;1.70;;
68076;SDS011;54866;53.458;14.540;2022-08-21T09:54:17;4.00;;;1.30;;
68076;SDS011;54866;53.458;14.540;2022-08-21T09:56:54;3.90;;;1.60;;
68076;SDS011;54866;53.458;14.540;2022-08-21T09:59:40;3.60;;;1.40;;
68076;SDS011;54866;53.458;14.540;2022-08-21T10:02:29;4.00;;;1.20;;
68076;SDS011;54866;53.458;14.540;2022-08-21T10:05:01;2.90;;;1.40;;
68076;SDS011;54866;53.458;14.540;2022-08-21T10:07:36;4.20;;;1.80;;
68076;SDS011;54866;53.458;14.540;2022-08-21T10:10:07;4.00;;;1.80;;
68076;SDS011;54866;53.458;14.540;2022-08-21T10:12:46;4.20;;;1.30;;
68076;SDS011;54866;53.458;14.540;2022-08-21T10:15:34;3.60;;;1.60;;
68076;SDS011;54866;53.458;14.540;2022-08-21T10:18:15;3.20;;;1.50;;
68076;SDS011;54866;53.458;14.540;2022-08-21T10:20:54;4.50;;;1.60;;
68076;SDS011;54866;53.458;14.540;2022-08-21T10:23:34;2.70;;;1.30;;
68076;SDS011;54866;53.458;14.540;2022-08-21T10:26:17;3.10;;;1.20;;
68076;SDS011;54866;53.458;14.540;2022-08-21T10:29:00;3.20;;;1.80;;
68076;SDS011;54866;53.458;14.540;2022-08-21T10:31:39;3.20;;;1.00;;
68076;SDS011;54866;53.458;14.540;2022-08-21T10:34:21;2.50;;;1.10;;
68076;SDS011;54866;53.458;14.540;2022-08-21T10:37:06;3.00;;;1.10;;
68076;SDS011;54866;53.458;14.540;2022-08-21T10:39:49;3.60;;;1.20;;
68076;SDS011;54866;53.458;14.540;2022-08-21T10:42:33;3.50;;;1.80;;
68076;SDS011;54866;53.458;14.540;2022-08-21T10:45:13;7.50;;;2.00;;
68076;SDS011;54866;53.458;14.540;2022-08-21T10:47:53;5.20;;;1.70;;
68076;SDS011;54866;53.458;14.540;2022-08-21T10:50:30;3.00;;;1.60;;
68076;SDS011;54866;53.458;14.540;2022-08-21T10:53:31;2.70;;;1.20;;
68076;SDS011;54866;53.458;14.540;2022-08-21T10:56:12;4.70;;;1.20;;
68076;SDS011;54866;53.458;14.540;2022-08-21T10:58:53;16.80;;;5.20;;
68076;SDS011;54866;53.458;14.540;2022-08-21T11:01:39;6.80;;;2.30;;
68076;SDS011;54866;53.458;14.540;2022-08-21T11:04:15;12.60;;;3.50;;
68076;SDS011;54866;53.458;14.540;2022-08-21T11:06:51;3.80;;;1.40;;
68076;SDS011;54866;53.458;14.540;2022-08-21T11:09:26;3.50;;;1.40;;
68076;SDS011;54866;53.458;14.540;2022-08-21T11:11:58;3.50;;;1.40;;
68076;SDS011;54866;53.458;14.540;2022-08-21T11:14:36;3.80;;;1.20;;
68076;SDS011;54866;53.458;14.540;2022-08-21T11:17:15;2.80;;;1.20;;
68076;SDS011;54866;53.458;14.540;2022-08-21T11:19:52;3.50;;;1.20;;
68076;SDS011;54866;53.458;14.540;2022-08-21T11:22:28;3.60;;;1.10;;
68076;SDS011;54866;53.458;14.540;2022-08-21T11:25:08;3.70;;;1.20;;
68076;SDS011;54866;53.458;14.540;2022-08-21T11:27:49;2.70;;;1.50;;
68076;SDS011;54866;53.458;14.540;2022-08-21T11:30:22;4.80;;;1.40;;
68076;SDS011;54866;53.458;14.540;2022-08-21T11:33:01;4.80;;;1.30;;
68076;SDS011;54866;53.458;14.540;2022-08-21T11:35:44;3.70;;;1.40;;
68076;SDS011;54866;53.458;14.540;2022-08-21T11:38:30;2.80;;;1.20;;
68076;SDS011;54866;53.458;14.540;2022-08-21T11:41:11;2.80;;;1.40;;
68076;SDS011;54866;53.458;14.540;2022-08-21T11:46:24;5.10;;;1.60;;
68076;SDS011;54866;53.458;14.540;2022-08-21T11:49:05;2.70;;;1.30;;
68076;SDS011;54866;53.458;14.540;2022-08-21T11:51:47;3.00;;;1.20;;
68076;SDS011;54866;53.458;14.540;2022-08-21T11:54:25;3.30;;;1.20;;
68076;SDS011;54866;53.458;14.540;2022-08-21T11:56:59;2.90;;;1.10;;
68076;SDS011;54866;53.458;14.540;2022-08-21T11:59:36;3.40;;;1.50;;
68076;SDS011;54866;53.458;14.540;2022-08-21T12:02:12;3.90;;;1.30;;
68076;SDS011;54866;53.458;14.540;2022-08-21T12:04:50;3.80;;;1.50;;
68076;SDS011;54866;53.458;14.540;2022-08-21T12:07:31;3.50;;;1.30;;
68076;SDS011;54866;53.458;14.540;2022-08-21T12:10:04;3.20;;;1.10;;
68076;SDS011;54866;53.458;14.540;2022-08-21T12:12:37;3.10;;;1.10;;
68076;SDS011;54866;53.458;14.540;2022-08-21T12:15:17;3.70;;;1.30;;
68076;SDS011;54866;53.458;14.540;2022-08-21T12:18:00;4.60;;;1.20;;
68076;SDS011;54866;53.458;14.540;2022-08-21T12:20:40;3.50;;;1.40;;
68076;SDS011;54866;53.458;14.540;2022-08-21T12:23:23;4.60;;;1.30;;
68076;SDS011;54866;53.458;14.540;2022-08-21T12:26:03;3.50;;;1.30;;
68076;SDS011;54866;53.458;14.540;2022-08-21T12:28:44;3.70;;;1.80;;
68076;SDS011;54866;53.458;14.540;2022-08-21T12:31:22;4.50;;;1.60;;
68076;SDS011;54866;53.458;14.540;2022-08-21T12:33:58;3.80;;;1.30;;
68076;SDS011;54866;53.458;14.540;2022-08-21T12:36:35;3.60;;;1.70;;
68076;SDS011;54866;53.458;14.540;2022-08-21T12:39:15;4.60;;;1.40;;
68076;SDS011;54866;53.458;14.540;2022-08-21T12:41:49;4.70;;;1.50;;
68076;SDS011;54866;53.458;14.540;2022-08-21T12:44:24;3.10;;;1.90;;
68076;SDS011;54866;53.458;14.540;2022-08-21T12:47:04;4.80;;;3.00;;
68076;SDS011;54866;53.458;14.540;2022-08-21T12:49:43;7.00;;;3.00;;
68076;SDS011;54866;53.458;14.540;2022-08-21T12:52:21;6.30;;;3.00;;
68076;SDS011;54866;53.458;14.540;2022-08-21T12:54:54;8.00;;;2.40;;
68076;SDS011;54866;53.458;14.540;2022-08-21T12:57:25;3.50;;;1.90;;
68076;SDS011;54866;53.458;14.540;2022-08-21T12:59:57;4.20;;;2.30;;
68076;SDS011;54866;53.458;14.540;2022-08-21T13:02:37;5.30;;;1.60;;
68076;SDS011;54866;53.458;14.540;2022-08-21T13:05:11;3.80;;;1.60;;
68076;SDS011;54866;53.458;14.540;2022-08-21T13:07:46;5.40;;;1.70;;
68076;SDS011;54866;53.458;14.540;2022-08-21T13:10:18;3.30;;;1.60;;
68076;SDS011;54866;53.458;14.540;2022-08-21T13:12:50;3.50;;;1.70;;
68076;SDS011;54866;53.458;14.540;2022-08-21T13:15:27;5.70;;;2.20;;
68076;SDS011;54866;53.458;14.540;2022-08-21T13:17:59;4.80;;;2.30;;
68076;SDS011;54866;53.458;14.540;2022-08-21T13:20:32;4.30;;;2.30;;
68076;SDS011;54866;53.458;14.540;2022-08-21T13:23:06;6.90;;;3.00;;
68076;SDS011;54866;53.458;14.540;2022-08-21T13:25:47;4.20;;;2.10;;
68076;SDS011;54866;53.458;14.540;2022-08-21T13:28:17;5.00;;;2.40;;
68076;SDS011;54866;53.458;14.540;2022-08-21T13:30:47;4.30;;;2.30;;
68076;SDS011;54866;53.458;14.540;2022-08-21T13:33:19;5.70;;;2.50;;
68076;SDS011;54866;53.458;14.540;2022-08-21T13:38:25;5.20;;;1.60;;
68076;SDS011;54866;53.458;14.540;2022-08-21T13:40:58;5.30;;;1.50;;
68076;SDS011;54866;53.458;14.540;2022-08-21T13:43:32;4.20;;;1.70;;
68076;SDS011;54866;53.458;14.540;2022-08-21T13:46:07;2.70;;;1.20;;
68076;SDS011;54866;53.458;14.540;2022-08-21T13:48:40;5.60;;;1.70;;
68076;SDS011;54866;53.458;14.540;2022-08-21T13:51:10;3.10;;;1.30;;
68076;SDS011;54866;53.458;14.540;2022-08-21T13:53:46;3.30;;;1.80;;
68076;SDS011;54866;53.458;14.540;2022-08-21T13:56:26;5.20;;;1.40;;
68076;SDS011;54866;53.458;14.540;2022-08-21T13:59:00;3.00;;;1.70;;
68076;SDS011;54866;53.458;14.540;2022-08-21T14:01:31;3.50;;;1.40;;
68076;SDS011;54866;53.458;14.540;2022-08-21T14:04:06;4.30;;;1.90;;
68076;SDS011;54866;53.458;14.540;2022-08-21T14:06:44;4.10;;;1.90;;
68076;SDS011;54866;53.458;14.540;2022-08-21T14:09:25;4.40;;;1.60;;
68076;SDS011;54866;53.458;14.540;2022-08-21T14:11:57;3.60;;;1.60;;
68076;SDS011;54866;53.458;14.540;2022-08-21T14:14:32;3.90;;;1.80;;
68076;SDS011;54866;53.458;14.540;2022-08-21T14:17:04;3.10;;;1.40;;
68076;SDS011;54866;53.458;14.540;2022-08-21T14:19:37;3.00;;;1.60;;
68076;SDS011;54866;53.458;14.540;2022-08-21T14:22:23;4.30;;;1.60;;
68076;SDS011;54866;53.458;14.540;2022-08-21T14:25:00;3.40;;;1.30;;
68076;SDS011;54866;53.458;14.540;2022-08-21T14:27:32;3.00;;;1.10;;
68076;SDS011;54866;53.458;14.540;2022-08-21T14:30:11;4.10;;;1.40;;
68076;SDS011;54866;53.458;14.540;2022-08-21T14:32:47;3.20;;;1.20;;
68076;SDS011;54866;53.458;14.540;2022-08-21T14:35:17;3.60;;;1.40;;
68076;SDS011;54866;53.458;14.540;2022-08-21T14:37:48;3.30;;;1.90;;
68076;SDS011;54866;53.458;14.540;2022-08-21T14:40:19;4.90;;;2.30;;
68076;SDS011;54866;53.458;14.540;2022-08-21T14:45:22;4.90;;;1.70;;
68076;SDS011;54866;53.458;14.540;2022-08-21T14:47:54;4.20;;;1.80;;
68076;SDS011;54866;53.458;14.540;2022-08-21T14:50:25;4.00;;;2.20;;
68076;SDS011;54866;53.458;14.540;2022-08-21T14:52:55;3.20;;;1.50;;
68076;SDS011;54866;53.458;14.540;2022-08-21T14:55:25;3.90;;;1.90;;
68076;SDS011;54866;53.458;14.540;2022-08-21T14:57:55;4.00;;;1.70;;
68076;SDS011;54866;53.458;14.540;2022-08-21T15:00:25;4.20;;;2.20;;
68076;SDS011;54866;53.458;14.540;2022-08-21T15:02:55;3.80;;;1.70;;
68076;SDS011;54866;53.458;14.540;2022-08-21T15:05:25;6.00;;;1.90;;
68076;SDS011;54866;53.458;14.540;2022-08-21T15:07:55;4.50;;;1.60;;
68076;SDS011;54866;53.458;14.540;2022-08-21T15:10:24;4.00;;;1.70;;
68076;SDS011;54866;53.458;14.540;2022-08-21T15:12:55;4.40;;;1.70;;
68076;SDS011;54866;53.458;14.540;2022-08-21T15:15:24;4.70;;;2.10;;
68076;SDS011;54866;53.458;14.540;2022-08-21T15:17:55;4.20;;;1.80;;
68076;SDS011;54866;53.458;14.540;2022-08-21T15:20:25;5.20;;;2.00;;